createdAt,value
2022-09-26T00:00:04.000Z,10.3
2022-09-26T00:01:20.000Z,10.3
2022-09-26T00:02:35.000Z,10.3
2022-09-26T00:03:51.000Z,10.3
2022-09-26T00:05:06.000Z,10.3
2022-09-26T00:06:21.000Z,10.2
2022-09-26T00:07:36.000Z,10.2
2022-09-26T00:08:53.000Z,10.2
2022-09-26T00:10:09.000Z,10.2
2022-09-26T00:11:25.000Z,10.2
2022-09-26T00:12:41.000Z,10.2
2022-09-26T00:13:58.000Z,10.2
2022-09-26T00:15:14.000Z,10.2
2022-09-26T00:16:30.000Z,10.2
2022-09-26T00:17:46.000Z,10.2
2022-09-26T00:19:03.000Z,10.2
2022-09-26T00:20:19.000Z,10.2
2022-09-26T00:21:35.000Z,10.2
2022-09-26T00:22:51.000Z,10.2
2022-09-26T00:24:06.000Z,10.3
2022-09-26T00:25:23.000Z,10.2
2022-09-26T00:26:39.000Z,10.2
2022-09-26T00:27:55.000Z,10.2
2022-09-26T00:29:11.000Z,10.2
2022-09-26T00:30:28.000Z,10.2
2022-09-26T00:31:44.000Z,10.2
2022-09-26T00:32:59.000Z,10.1
2022-09-26T00:34:14.000Z,10.1
2022-09-26T00:35:31.000Z,10.1
2022-09-26T00:36:46.000Z,10
2022-09-26T00:38:01.000Z,10
2022-09-26T00:39:17.000Z,10
2022-09-26T00:40:34.000Z,10
2022-09-26T00:41:50.000Z,10
2022-09-26T00:43:06.000Z,10
2022-09-26T00:44:22.000Z,10.1
2022-09-26T00:45:39.000Z,10.1
2022-09-26T00:46:55.000Z,10.1
2022-09-26T00:48:11.000Z,10.1
2022-09-26T00:49:27.000Z,10
2022-09-26T00:50:43.000Z,10
2022-09-26T00:52:00.000Z,10
2022-09-26T00:53:16.000Z,10
2022-09-26T00:54:32.000Z,10
2022-09-26T00:55:47.000Z,10.1
2022-09-26T00:57:04.000Z,10.1
2022-09-26T00:58:20.000Z,10.1
2022-09-26T00:59:36.000Z,10.1
2022-09-26T01:00:52.000Z,10.1
2022-09-26T01:02:09.000Z,10.1
2022-09-26T01:03:24.000Z,10.1
2022-09-26T01:04:39.000Z,10.1
2022-09-26T01:05:55.000Z,10.1
2022-09-26T01:07:11.000Z,10.1
2022-09-26T01:08:26.000Z,10.1
2022-09-26T01:09:42.000Z,10.1
2022-09-26T01:10:58.000Z,10.1
2022-09-26T01:12:15.000Z,10.1
2022-09-26T01:13:31.000Z,10.1
2022-09-26T01:14:47.000Z,10.1
2022-09-26T01:16:03.000Z,10.2
2022-09-26T01:17:20.000Z,10.2
2022-09-26T01:18:36.000Z,10.1
2022-09-26T01:19:52.000Z,10.2
2022-09-26T01:21:08.000Z,10.2
2022-09-26T01:22:24.000Z,10.2
2022-09-26T01:23:41.000Z,10.1
2022-09-26T01:24:56.000Z,10.2
2022-09-26T01:26:12.000Z,10.2
2022-09-26T01:27:28.000Z,10.2
2022-09-26T01:28:45.000Z,10.3
2022-09-26T01:30:01.000Z,10.3
2022-09-26T01:31:17.000Z,10.4
2022-09-26T01:32:33.000Z,10.4
2022-09-26T01:33:49.000Z,10.4
2022-09-26T01:35:04.000Z,10.3
2022-09-26T01:36:20.000Z,10.3
2022-09-26T01:37:36.000Z,10.3
2022-09-26T01:38:52.000Z,10.3
2022-09-26T01:40:07.000Z,10.3
2022-09-26T01:41:23.000Z,10.3
2022-09-26T01:42:39.000Z,10.3
2022-09-26T01:43:56.000Z,10.3
2022-09-26T01:45:12.000Z,10.3
2022-09-26T01:46:28.000Z,10.2
2022-09-26T01:47:44.000Z,10.2
2022-09-26T01:49:00.000Z,10.3
2022-09-26T01:50:17.000Z,10.3
2022-09-26T01:51:33.000Z,10.3
2022-09-26T01:52:49.000Z,10.3
2022-09-26T01:54:05.000Z,10.3
2022-09-26T01:55:22.000Z,10.3
2022-09-26T01:56:37.000Z,10.3
2022-09-26T01:57:53.000Z,10.4
2022-09-26T01:59:09.000Z,10.4
2022-09-26T02:00:26.000Z,10.4
2022-09-26T02:01:42.000Z,10.4
2022-09-26T02:02:58.000Z,10.4
2022-09-26T02:04:14.000Z,10.4
2022-09-26T02:05:31.000Z,10.4
2022-09-26T02:06:46.000Z,10.4
2022-09-26T02:08:01.000Z,10.4
2022-09-26T02:09:16.000Z,10.4
2022-09-26T02:10:32.000Z,10.3
2022-09-26T02:11:48.000Z,10.4
2022-09-26T02:13:04.000Z,10.3
2022-09-26T02:14:20.000Z,10.4
2022-09-26T02:15:36.000Z,10.3
2022-09-26T02:16:53.000Z,10.3
2022-09-26T02:18:09.000Z,10.3
2022-09-26T02:19:25.000Z,10.4
2022-09-26T02:20:41.000Z,10.4
2022-09-26T02:21:58.000Z,10.4
2022-09-26T02:23:14.000Z,10.3
2022-09-26T02:24:30.000Z,10.3
2022-09-26T02:25:46.000Z,10.4
2022-09-26T02:27:02.000Z,10.4
2022-09-26T02:28:18.000Z,10.4
2022-09-26T02:29:34.000Z,10.5
2022-09-26T02:30:50.000Z,10.5
2022-09-26T02:32:07.000Z,10.5
2022-09-26T02:33:23.000Z,10.4
2022-09-26T02:34:39.000Z,10.4
2022-09-26T02:35:54.000Z,10.4
2022-09-26T02:37:10.000Z,10.4
2022-09-26T02:38:25.000Z,10.3
2022-09-26T02:39:40.000Z,10.3
2022-09-26T02:40:56.000Z,10.3
2022-09-26T02:42:12.000Z,10.3
2022-09-26T02:43:29.000Z,10.3
2022-09-26T02:44:45.000Z,10.3
2022-09-26T02:46:01.000Z,10.3
2022-09-26T02:47:17.000Z,10.3
2022-09-26T02:48:34.000Z,10.3
2022-09-26T02:49:50.000Z,10.3
2022-09-26T02:51:06.000Z,10.3
2022-09-26T02:52:22.000Z,10.3
2022-09-26T02:53:39.000Z,10.3
2022-09-26T02:54:55.000Z,10.3
2022-09-26T02:56:10.000Z,10.3
2022-09-26T02:57:26.000Z,10.4
2022-09-26T02:58:43.000Z,10.4
2022-09-26T02:59:59.000Z,10.4
2022-09-26T03:01:15.000Z,10.4
2022-09-26T03:02:31.000Z,10.4
2022-09-26T03:03:47.000Z,10.4
2022-09-26T03:05:04.000Z,10.5
2022-09-26T03:06:20.000Z,10.5
2022-09-26T03:07:36.000Z,10.5
2022-09-26T03:08:52.000Z,10.5
2022-09-26T03:10:09.000Z,10.6
2022-09-26T03:11:25.000Z,10.6
2022-09-26T03:12:40.000Z,10.6
2022-09-26T03:13:56.000Z,10.6
2022-09-26T03:15:13.000Z,10.6
2022-09-26T03:16:29.000Z,10.6
2022-09-26T03:17:45.000Z,10.7
2022-09-26T03:19:01.000Z,10.7
2022-09-26T03:20:18.000Z,10.7
2022-09-26T03:21:33.000Z,10.7
2022-09-26T03:22:48.000Z,10.7
2022-09-26T03:24:03.000Z,10.7
2022-09-26T03:25:19.000Z,10.7
2022-09-26T03:26:35.000Z,10.8
2022-09-26T03:27:51.000Z,10.8
2022-09-26T03:29:07.000Z,10.9
2022-09-26T03:30:24.000Z,10.9
2022-09-26T03:31:40.000Z,10.9
2022-09-26T03:32:56.000Z,10.9
2022-09-26T03:34:12.000Z,10.9
2022-09-26T03:35:28.000Z,10.9
2022-09-26T03:36:45.000Z,10.9
2022-09-26T03:38:01.000Z,10.9
2022-09-26T03:39:17.000Z,10.9
2022-09-26T03:40:33.000Z,10.8
2022-09-26T03:41:49.000Z,10.9
2022-09-26T03:43:05.000Z,10.9
2022-09-26T03:44:21.000Z,10.8
2022-09-26T03:45:37.000Z,10.9
2022-09-26T03:46:54.000Z,10.9
2022-09-26T03:48:10.000Z,10.9
2022-09-26T03:49:26.519Z,10.9
2022-09-26T03:50:41.000Z,10.9
2022-09-26T03:51:57.000Z,10.9
2022-09-26T03:53:13.000Z,10.9
2022-09-26T03:54:29.000Z,10.9
2022-09-26T03:55:44.000Z,10.9
2022-09-26T03:57:00.000Z,11
2022-09-26T03:58:16.000Z,11
2022-09-26T03:59:32.000Z,11
2022-09-26T04:00:48.000Z,11
2022-09-26T04:02:04.000Z,10.9
2022-09-26T04:03:21.000Z,10.9
2022-09-26T04:04:37.000Z,10.9
2022-09-26T04:05:53.000Z,10.9
2022-09-26T04:07:09.000Z,10.9
2022-09-26T04:08:26.000Z,10.9
2022-09-26T04:09:42.000Z,10.9
2022-09-26T04:10:58.000Z,10.9
2022-09-26T04:12:14.000Z,10.8
2022-09-26T04:13:30.000Z,10.9
2022-09-26T04:14:46.000Z,10.9
2022-09-26T04:16:02.000Z,10.9
2022-09-26T04:17:18.000Z,10.9
2022-09-26T04:18:35.000Z,10.9
2022-09-26T04:19:50.000Z,10.9
2022-09-26T04:21:06.000Z,10.9
2022-09-26T04:22:21.000Z,10.9
2022-09-26T04:23:37.000Z,10.9
2022-09-26T04:24:52.000Z,10.9
2022-09-26T04:26:07.000Z,10.9
2022-09-26T04:27:23.000Z,10.9
2022-09-26T04:28:39.000Z,10.9
2022-09-26T04:29:56.000Z,10.9
2022-09-26T04:31:12.000Z,10.9
2022-09-26T04:32:28.000Z,10.9
2022-09-26T04:33:44.000Z,10.9
2022-09-26T04:35:01.000Z,10.8
2022-09-26T04:36:17.000Z,10.8
2022-09-26T04:37:33.000Z,10.8
2022-09-26T04:38:49.000Z,10.8
2022-09-26T04:40:06.000Z,10.8
2022-09-26T04:41:22.000Z,10.8
2022-09-26T04:42:37.000Z,10.8
2022-09-26T04:43:53.000Z,10.8
2022-09-26T04:45:10.000Z,10.8
2022-09-26T04:46:26.000Z,10.8
2022-09-26T04:47:42.000Z,10.8
2022-09-26T04:48:58.000Z,10.8
2022-09-26T04:50:14.000Z,10.8
2022-09-26T04:51:30.000Z,10.8
2022-09-26T04:52:45.000Z,10.8
2022-09-26T04:54:01.000Z,10.8
2022-09-26T04:55:16.000Z,10.8
2022-09-26T04:56:32.000Z,10.8
2022-09-26T04:57:48.000Z,10.8
2022-09-26T04:59:04.000Z,10.8
2022-09-26T05:00:20.000Z,10.8
2022-09-26T05:01:37.000Z,10.8
2022-09-26T05:02:53.000Z,10.8
2022-09-26T05:04:09.000Z,10.8
2022-09-26T05:05:25.000Z,10.8
2022-09-26T05:06:42.000Z,10.8
2022-09-26T05:07:58.000Z,10.8
2022-09-26T05:09:14.000Z,10.8
2022-09-26T05:10:30.000Z,10.8
2022-09-26T05:11:47.000Z,10.9
2022-09-26T05:13:02.000Z,10.9
2022-09-26T05:14:18.000Z,10.9
2022-09-26T05:15:34.000Z,10.9
2022-09-26T05:16:50.000Z,10.8
2022-09-26T05:18:07.000Z,10.8
2022-09-26T05:19:23.000Z,10.8
2022-09-26T05:20:39.000Z,10.8
2022-09-26T05:21:55.000Z,10.9
2022-09-26T05:23:11.000Z,10.9
2022-09-26T05:24:26.000Z,10.9
2022-09-26T05:25:42.000Z,10.9
2022-09-26T05:26:58.000Z,10.9
2022-09-26T05:28:14.000Z,10.9
2022-09-26T05:29:29.000Z,10.9
2022-09-26T05:30:45.000Z,10.9
2022-09-26T05:32:01.000Z,10.9
2022-09-26T05:33:18.000Z,10.9
2022-09-26T05:34:34.000Z,10.9
2022-09-26T05:35:50.000Z,10.9
2022-09-26T05:37:06.000Z,10.9
2022-09-26T05:38:23.000Z,10.9
2022-09-26T05:39:39.000Z,10.9
2022-09-26T05:40:55.000Z,10.9
2022-09-26T05:42:11.000Z,11
2022-09-26T05:43:28.000Z,11
2022-09-26T05:44:44.000Z,11
2022-09-26T05:45:59.000Z,11
2022-09-26T05:47:15.000Z,11
2022-09-26T05:48:31.000Z,11
2022-09-26T05:49:48.000Z,11
2022-09-26T05:51:04.000Z,11
2022-09-26T05:52:20.000Z,11.1
2022-09-26T05:53:36.000Z,11.1
2022-09-26T05:54:52.000Z,11.1
2022-09-26T05:56:07.000Z,11.1
2022-09-26T05:57:22.000Z,11.1
2022-09-26T05:58:37.000Z,11.2
2022-09-26T05:59:54.000Z,11.2
2022-09-26T06:01:10.000Z,11.2
2022-09-26T06:02:26.000Z,11.2
2022-09-26T06:03:42.000Z,11.3
2022-09-26T06:04:59.000Z,11.3
2022-09-26T06:06:15.000Z,11.3
2022-09-26T06:07:31.000Z,11.3
2022-09-26T06:08:47.000Z,11.3
2022-09-26T06:10:04.000Z,11.3
2022-09-26T06:11:20.000Z,11.3
2022-09-26T06:12:36.000Z,11.4
2022-09-26T06:13:52.000Z,11.4
2022-09-26T06:15:07.000Z,11.4
2022-09-26T06:16:24.000Z,11.4
2022-09-26T06:17:40.000Z,11.4
2022-09-26T06:18:56.000Z,11.5
2022-09-26T06:20:12.000Z,11.5
2022-09-26T06:21:29.000Z,11.5
2022-09-26T06:22:45.000Z,11.6
2022-09-26T06:24:00.000Z,11.6
2022-09-26T06:25:15.000Z,11.6
2022-09-26T06:26:31.000Z,11.6
2022-09-26T06:27:46.000Z,11.7
2022-09-26T06:29:02.000Z,11.7
2022-09-26T06:30:18.000Z,11.7
2022-09-26T06:31:35.000Z,11.7
2022-09-26T06:32:51.000Z,11.7
2022-09-26T06:34:07.000Z,11.7
2022-09-26T06:35:23.000Z,11.7
2022-09-26T06:36:40.000Z,11.8
2022-09-26T06:37:56.000Z,11.8
2022-09-26T06:39:12.000Z,11.9
2022-09-26T06:40:28.000Z,11.9
2022-09-26T06:41:44.000Z,11.9
2022-09-26T06:43:01.000Z,11.9
2022-09-26T06:44:16.000Z,12
2022-09-26T06:45:32.000Z,12
2022-09-26T06:46:48.000Z,12
2022-09-26T06:48:05.000Z,12
2022-09-26T06:49:21.000Z,12.1
2022-09-26T06:50:37.000Z,12.1
2022-09-26T06:51:53.000Z,12.1
2022-09-26T06:53:09.000Z,12.1
2022-09-26T06:54:24.000Z,12.2
2022-09-26T06:55:40.000Z,12.2
2022-09-26T06:56:56.000Z,12.2
2022-09-26T06:58:12.000Z,12.3
2022-09-26T06:59:27.000Z,12.3
2022-09-26T07:00:43.000Z,12.3
2022-09-26T07:01:59.000Z,12.3
2022-09-26T07:03:16.000Z,12.4
2022-09-26T07:04:32.000Z,12.4
2022-09-26T07:05:48.000Z,12.4
2022-09-26T07:07:04.000Z,12.4
2022-09-26T07:08:20.000Z,12.4
2022-09-26T07:09:37.000Z,12.5
2022-09-26T07:10:53.000Z,12.5
2022-09-26T07:12:09.000Z,12.5
2022-09-26T07:13:25.000Z,12.5
2022-09-26T07:14:42.000Z,12.5
2022-09-26T07:15:57.000Z,12.5
2022-09-26T07:17:13.000Z,12.5
2022-09-26T07:18:29.000Z,12.6
2022-09-26T07:19:46.000Z,12.5
2022-09-26T07:21:02.000Z,12.5
2022-09-26T07:22:18.000Z,12.6
2022-09-26T07:23:34.000Z,12.7
2022-09-26T07:24:50.000Z,12.7
2022-09-26T07:26:05.000Z,12.8
2022-09-26T07:27:20.000Z,12.9
2022-09-26T07:28:35.000Z,12.9
2022-09-26T07:29:52.000Z,13
2022-09-26T07:31:08.000Z,13
2022-09-26T07:32:24.000Z,12.9
2022-09-26T07:33:40.000Z,13
2022-09-26T07:34:57.000Z,13
2022-09-26T07:36:13.000Z,13
2022-09-26T07:37:29.000Z,13.1
2022-09-26T07:38:45.000Z,13.1
2022-09-26T07:40:01.000Z,13.1
2022-09-26T07:41:18.000Z,13.1
2022-09-26T07:42:34.000Z,13.1
2022-09-26T07:43:50.000Z,13.1
2022-09-26T07:45:05.000Z,13.1
2022-09-26T07:46:22.000Z,13.1
2022-09-26T07:47:38.000Z,13.1
2022-09-26T07:48:54.000Z,13.1
2022-09-26T07:50:10.000Z,13.1
2022-09-26T07:51:27.000Z,13.1
2022-09-26T07:52:43.000Z,13.1
2022-09-26T07:53:58.000Z,13.2
2022-09-26T07:55:13.000Z,13.2
2022-09-26T07:56:30.000Z,13.3
2022-09-26T07:57:46.000Z,13.3
2022-09-26T07:59:01.000Z,13.2
2022-09-26T08:00:16.000Z,13.1
2022-09-26T08:01:33.000Z,13.1
2022-09-26T08:02:49.000Z,13
2022-09-26T08:04:05.000Z,13
2022-09-26T08:05:21.000Z,13
2022-09-26T08:06:37.000Z,13
2022-09-26T08:07:54.000Z,13
2022-09-26T08:09:10.000Z,13
2022-09-26T08:10:26.000Z,13.1
2022-09-26T08:11:42.000Z,13
2022-09-26T08:12:59.000Z,13
2022-09-26T08:14:15.000Z,13
2022-09-26T08:15:31.000Z,13
2022-09-26T08:16:46.000Z,13
2022-09-26T08:18:03.000Z,13.1
2022-09-26T08:19:19.000Z,13.1
2022-09-26T08:20:35.000Z,13
2022-09-26T08:21:51.000Z,13
2022-09-26T08:23:08.000Z,13
2022-09-26T08:24:24.000Z,13
2022-09-26T08:25:39.000Z,13.1
2022-09-26T08:26:54.000Z,13.1
2022-09-26T08:28:10.000Z,13.1
2022-09-26T08:29:25.000Z,13.1
2022-09-26T08:30:41.000Z,13.1
2022-09-26T08:31:57.000Z,13
2022-09-26T08:33:13.000Z,13
2022-09-26T08:34:29.000Z,13
2022-09-26T08:35:45.000Z,13
2022-09-26T08:37:01.000Z,13
2022-09-26T08:38:17.000Z,13
2022-09-26T08:39:34.000Z,12.9
2022-09-26T08:40:50.000Z,12.9
2022-09-26T08:42:06.000Z,12.9
2022-09-26T08:43:22.000Z,12.9
2022-09-26T08:44:39.000Z,12.9
2022-09-26T08:45:55.000Z,12.9
2022-09-26T08:47:11.000Z,12.9
2022-09-26T08:48:27.000Z,12.8
2022-09-26T08:49:44.000Z,12.8
2022-09-26T08:50:59.000Z,12.8
2022-09-26T08:52:15.000Z,12.8
2022-09-26T08:53:31.000Z,12.9
2022-09-26T08:54:47.000Z,12.9
2022-09-26T08:56:04.000Z,13
2022-09-26T08:57:20.000Z,13
2022-09-26T08:58:36.000Z,13.1
2022-09-26T08:59:52.000Z,13.2
2022-09-26T09:01:09.000Z,13.2
2022-09-26T09:02:25.000Z,13.2
2022-09-26T09:03:41.000Z,13.2
2022-09-26T09:04:57.000Z,13.2
2022-09-26T09:06:14.000Z,13.1
2022-09-26T09:07:29.000Z,13.2
2022-09-26T09:08:45.000Z,13.2
2022-09-26T09:10:01.000Z,13.1
2022-09-26T09:11:18.000Z,13
2022-09-26T09:12:34.000Z,13.1
2022-09-26T09:13:50.000Z,13.1
2022-09-26T09:15:06.000Z,13.1
2022-09-26T09:16:22.000Z,13.2
2022-09-26T09:17:37.000Z,13.2
2022-09-26T09:18:53.000Z,13.2
2022-09-26T09:20:09.000Z,13.3
2022-09-26T09:21:25.000Z,13.5
2022-09-26T09:22:42.000Z,13.6
2022-09-26T09:23:58.000Z,13.7
2022-09-26T09:25:14.000Z,13.5
2022-09-26T09:26:30.000Z,13.6
2022-09-26T09:27:47.000Z,13.6
2022-09-26T09:29:03.000Z,13.5
2022-09-26T09:30:19.000Z,13.3
2022-09-26T09:31:35.000Z,13.3
2022-09-26T09:32:52.000Z,13.2
2022-09-26T09:34:07.000Z,13.2
2022-09-26T09:35:23.000Z,13.2
2022-09-26T09:36:39.000Z,13.2
2022-09-26T09:37:56.000Z,13.2
2022-09-26T09:39:12.000Z,13.2
2022-09-26T09:40:28.000Z,13.2
2022-09-26T09:41:44.000Z,13.1
2022-09-26T09:42:59.000Z,13
2022-09-26T09:44:15.000Z,12.9
2022-09-26T09:45:30.000Z,12.9
2022-09-26T09:46:45.000Z,12.8
2022-09-26T09:48:01.000Z,12.8
2022-09-26T09:49:17.000Z,12.7
2022-09-26T09:50:32.000Z,12.7
2022-09-26T09:51:48.000Z,12.8
2022-09-26T09:53:04.000Z,12.9
2022-09-26T09:54:21.000Z,12.9
2022-09-26T09:55:37.000Z,12.8
2022-09-26T09:56:53.000Z,12.8
2022-09-26T09:58:09.000Z,12.8
2022-09-26T09:59:26.000Z,12.9
2022-09-26T10:00:42.000Z,13
2022-09-26T10:01:58.000Z,13.1
2022-09-26T10:03:14.000Z,13.2
2022-09-26T10:04:31.000Z,13.2
2022-09-26T10:05:47.000Z,13.2
2022-09-26T10:07:02.000Z,13.2
2022-09-26T10:08:18.000Z,13.2
2022-09-26T10:09:35.000Z,13.2
2022-09-26T10:10:51.000Z,13.1
2022-09-26T10:12:07.000Z,13
2022-09-26T10:13:23.000Z,13
2022-09-26T10:14:39.000Z,13.1
2022-09-26T10:15:55.000Z,13
2022-09-26T10:17:10.000Z,13
2022-09-26T10:18:25.000Z,12.9
2022-09-26T10:19:40.000Z,12.8
2022-09-26T10:20:57.000Z,12.9
2022-09-26T10:22:13.000Z,12.9
2022-09-26T10:23:29.000Z,12.9
2022-09-26T10:24:45.000Z,13
2022-09-26T10:26:02.000Z,13.1
2022-09-26T10:27:18.000Z,12.9
2022-09-26T10:28:34.000Z,12.8
2022-09-26T10:29:50.000Z,12.7
2022-09-26T10:31:07.000Z,12.6
2022-09-26T10:32:23.000Z,12.6
2022-09-26T10:33:39.000Z,12.7
2022-09-26T10:34:55.000Z,12.7
2022-09-26T10:36:11.000Z,12.7
2022-09-26T10:37:27.000Z,12.7
2022-09-26T10:38:43.000Z,12.7
2022-09-26T10:39:59.000Z,12.8
2022-09-26T10:41:15.000Z,12.8
2022-09-26T10:42:32.000Z,12.9
2022-09-26T10:43:48.000Z,12.9
2022-09-26T10:45:04.000Z,12.8
2022-09-26T10:46:20.000Z,12.7
2022-09-26T10:47:36.000Z,12.7
2022-09-26T10:48:51.000Z,12.7
2022-09-26T10:50:06.000Z,12.7
2022-09-26T10:51:21.000Z,12.7
2022-09-26T10:52:38.000Z,12.7
2022-09-26T10:53:54.000Z,12.7
2022-09-26T10:55:10.000Z,12.7
2022-09-26T10:56:26.000Z,12.6
2022-09-26T10:57:43.000Z,12.6
2022-09-26T10:58:59.000Z,12.6
2022-09-26T11:00:15.000Z,12.5
2022-09-26T11:01:31.000Z,12.5
2022-09-26T11:02:48.000Z,12.5
2022-09-26T11:04:04.000Z,12.5
2022-09-26T11:05:20.000Z,12.4
2022-09-26T11:06:36.000Z,12.4
2022-09-26T11:07:51.000Z,12.4
2022-09-26T11:09:08.000Z,12.4
2022-09-26T11:10:24.000Z,12.4
2022-09-26T11:11:40.000Z,12.4
2022-09-26T11:12:56.000Z,12.5
2022-09-26T11:14:13.000Z,12.5
2022-09-26T11:15:29.000Z,12.6
2022-09-26T11:16:44.000Z,12.6
2022-09-26T11:17:59.000Z,12.6
2022-09-26T11:19:15.000Z,12.6
2022-09-26T11:20:30.000Z,12.7
2022-09-26T11:21:46.000Z,12.7
2022-09-26T11:23:02.000Z,12.8
2022-09-26T11:24:19.000Z,12.8
2022-09-26T11:25:35.000Z,12.8
2022-09-26T11:26:51.000Z,12.8
2022-09-26T11:28:07.000Z,12.8
2022-09-26T11:29:24.000Z,12.7
2022-09-26T11:30:40.000Z,12.7
2022-09-26T11:31:56.000Z,12.8
2022-09-26T11:33:12.000Z,12.9
2022-09-26T11:34:28.000Z,12.9
2022-09-26T11:35:45.000Z,12.9
2022-09-26T11:37:01.000Z,12.9
2022-09-26T11:38:17.000Z,12.9
2022-09-26T11:39:32.000Z,12.9
2022-09-26T11:40:49.000Z,13
2022-09-26T11:42:05.000Z,13
2022-09-26T11:43:21.000Z,13.1
2022-09-26T11:44:37.000Z,13.1
2022-09-26T11:45:53.000Z,13.2
2022-09-26T11:47:08.000Z,13.4
2022-09-26T11:48:23.000Z,13.5
2022-09-26T11:49:38.000Z,13.5
2022-09-26T11:50:55.000Z,13.6
2022-09-26T11:52:11.000Z,13.7
2022-09-26T11:53:27.000Z,13.8
2022-09-26T11:54:43.000Z,13.8
2022-09-26T11:56:00.000Z,13.8
2022-09-26T11:57:16.000Z,13.9
2022-09-26T11:58:32.000Z,14.1
2022-09-26T11:59:48.000Z,14.3
2022-09-26T12:01:05.000Z,14.6
2022-09-26T12:02:21.000Z,14.7
2022-09-26T12:03:37.000Z,14.6
2022-09-26T12:04:53.000Z,14.5
2022-09-26T12:06:08.000Z,14.4
2022-09-26T12:07:25.000Z,14.3
2022-09-26T12:08:41.000Z,14.4
2022-09-26T12:09:57.000Z,14.4
2022-09-26T12:11:13.000Z,14.3
2022-09-26T12:12:30.000Z,14.3
2022-09-26T12:13:46.000Z,14.3
2022-09-26T12:15:01.000Z,14.3
2022-09-26T12:16:16.000Z,14.2
2022-09-26T12:17:32.000Z,14.4
2022-09-26T12:18:47.000Z,14.3
2022-09-26T12:20:03.000Z,14.2
2022-09-26T12:21:19.000Z,14.2
2022-09-26T12:22:36.000Z,14.2
2022-09-26T12:23:52.000Z,14.2
2022-09-26T12:25:08.000Z,14.3
2022-09-26T12:26:24.000Z,14.3
2022-09-26T12:27:41.000Z,14.3
2022-09-26T12:28:57.000Z,14.2
2022-09-26T12:30:13.000Z,14.2
2022-09-26T12:31:29.000Z,14.2
2022-09-26T12:32:45.000Z,14.2
2022-09-26T12:34:02.000Z,14.2
2022-09-26T12:35:17.000Z,14.1
2022-09-26T12:36:33.000Z,14.1
2022-09-26T12:37:49.000Z,14
2022-09-26T12:39:06.000Z,14
2022-09-26T12:40:22.000Z,14
2022-09-26T12:41:38.000Z,14
2022-09-26T12:42:54.000Z,13.9
2022-09-26T12:44:10.000Z,13.9
2022-09-26T12:45:25.000Z,13.9
2022-09-26T12:46:40.000Z,13.9
2022-09-26T12:47:55.000Z,13.8
2022-09-26T12:49:12.000Z,13.8
2022-09-26T12:50:28.000Z,13.9
2022-09-26T12:51:44.000Z,13.9
2022-09-26T12:52:59.000Z,14
2022-09-26T12:54:16.000Z,13.9
2022-09-26T12:55:32.000Z,13.9
2022-09-26T12:56:48.000Z,13.9
2022-09-26T12:58:04.000Z,13.9
2022-09-26T12:59:21.000Z,13.8
2022-09-26T13:00:37.000Z,13.8
2022-09-26T13:01:53.000Z,13.8
2022-09-26T13:03:09.000Z,13.8
2022-09-26T13:04:25.000Z,13.8
2022-09-26T13:05:42.000Z,13.8
2022-09-26T13:06:58.000Z,13.7
2022-09-26T13:08:14.000Z,13.7
2022-09-26T13:09:29.000Z,13.7
2022-09-26T13:10:46.000Z,13.7
2022-09-26T13:12:02.000Z,13.7
2022-09-26T13:13:18.000Z,13.7
2022-09-26T13:14:34.000Z,13.7
2022-09-26T13:15:51.000Z,13.7
2022-09-26T13:17:06.000Z,13.7
2022-09-26T13:18:21.000Z,13.6
2022-09-26T13:19:36.000Z,13.7
2022-09-26T13:20:52.000Z,13.8
2022-09-26T13:22:08.000Z,13.8
2022-09-26T13:23:24.000Z,13.8
2022-09-26T13:24:40.000Z,13.9
2022-09-26T13:25:57.000Z,13.9
2022-09-26T13:27:13.000Z,13.9
2022-09-26T13:28:29.000Z,13.9
2022-09-26T13:29:45.000Z,13.9
2022-09-26T13:31:01.000Z,13.8
2022-09-26T13:32:18.000Z,13.8
2022-09-26T13:33:34.000Z,13.8
2022-09-26T13:34:50.000Z,13.8
2022-09-26T13:36:06.000Z,13.7
2022-09-26T13:37:22.000Z,13.8
2022-09-26T13:38:38.000Z,13.8
2022-09-26T13:39:54.000Z,13.9
2022-09-26T13:41:10.000Z,14
2022-09-26T13:42:27.000Z,14.2
2022-09-26T13:43:43.000Z,14.4
2022-09-26T13:44:59.000Z,14.5
2022-09-26T13:46:14.000Z,14.6
2022-09-26T13:47:30.000Z,14.6
2022-09-26T13:48:46.000Z,14.6
2022-09-26T13:50:01.000Z,14.7
2022-09-26T13:51:16.000Z,14.7
2022-09-26T13:52:33.000Z,14.7
2022-09-26T13:53:49.000Z,14.7
2022-09-26T13:55:05.000Z,14.6
2022-09-26T13:56:21.000Z,14.6
2022-09-26T13:57:37.000Z,14.5
2022-09-26T13:58:54.000Z,14.5
2022-09-26T14:00:10.000Z,14.6
2022-09-26T14:01:26.000Z,14.6
2022-09-26T14:02:42.000Z,14.6
2022-09-26T14:03:59.000Z,14.4
2022-09-26T14:05:15.000Z,14.5
2022-09-26T14:06:31.000Z,14.6
2022-09-26T14:07:46.000Z,14.7
2022-09-26T14:09:03.000Z,14.8
2022-09-26T14:10:19.000Z,14.8
2022-09-26T14:11:35.000Z,14.8
2022-09-26T14:12:51.000Z,14.8
2022-09-26T14:14:08.000Z,14.7
2022-09-26T14:15:24.000Z,14.8
2022-09-26T14:16:40.000Z,14.6
2022-09-26T14:17:56.000Z,14.6
2022-09-26T14:19:12.000Z,14.5
2022-09-26T14:20:29.000Z,14.4
2022-09-26T14:21:45.000Z,14.3
2022-09-26T14:23:01.000Z,14.2
2022-09-26T14:24:16.000Z,14.2
2022-09-26T14:25:33.000Z,14.2
2022-09-26T14:26:49.000Z,14
2022-09-26T14:28:05.000Z,13.9
2022-09-26T14:29:21.000Z,13.8
2022-09-26T14:30:38.000Z,13.8
2022-09-26T14:31:54.000Z,13.7
2022-09-26T14:33:10.000Z,13.8
2022-09-26T14:34:26.000Z,13.8
2022-09-26T14:35:42.000Z,13.8
2022-09-26T14:36:57.000Z,13.8
2022-09-26T14:38:13.000Z,13.8
2022-09-26T14:39:29.000Z,13.7
2022-09-26T14:40:45.000Z,13.6
2022-09-26T14:42:00.000Z,13.5
2022-09-26T14:43:16.000Z,13.5
2022-09-26T14:44:32.000Z,13.4
2022-09-26T14:45:48.000Z,13.4
2022-09-26T14:47:05.000Z,13.5
2022-09-26T14:48:21.000Z,13.5
2022-09-26T14:49:37.000Z,13.4
2022-09-26T14:50:53.000Z,13.2
2022-09-26T14:52:10.000Z,13.2
2022-09-26T14:53:26.000Z,13.1
2022-09-26T14:54:42.000Z,13.1
2022-09-26T14:55:58.000Z,12.9
2022-09-26T14:57:15.000Z,12.8
2022-09-26T14:58:31.000Z,12.7
2022-09-26T14:59:46.000Z,12.6
2022-09-26T15:01:02.000Z,12.6
2022-09-26T15:02:19.000Z,12.6
2022-09-26T15:03:35.000Z,12.6
2022-09-26T15:04:51.000Z,12.6
2022-09-26T15:06:07.000Z,12.6
2022-09-26T15:07:23.000Z,12.6
2022-09-26T15:08:39.000Z,12.6
2022-09-26T15:09:54.000Z,12.6
2022-09-26T15:11:09.000Z,12.6
2022-09-26T15:12:25.000Z,12.6
2022-09-26T15:13:42.000Z,12.6
2022-09-26T15:14:57.000Z,12.6
2022-09-26T15:16:13.000Z,12.6
2022-09-26T15:17:29.000Z,12.6
2022-09-26T15:18:46.000Z,12.6
2022-09-26T15:20:02.000Z,12.6
2022-09-26T15:21:18.000Z,12.6
2022-09-26T15:22:34.000Z,12.6
2022-09-26T15:23:51.000Z,12.7
2022-09-26T15:25:07.000Z,12.7
2022-09-26T15:26:23.000Z,12.7
2022-09-26T15:27:39.000Z,12.7
2022-09-26T15:28:56.000Z,12.6
2022-09-26T15:30:12.000Z,12.6
2022-09-26T15:31:27.000Z,12.6
2022-09-26T15:32:43.000Z,12.6
2022-09-26T15:33:59.000Z,12.6
2022-09-26T15:35:16.000Z,12.5
2022-09-26T15:36:32.000Z,12.5
2022-09-26T15:37:47.000Z,12.5
2022-09-26T15:39:02.000Z,12.5
2022-09-26T15:40:19.000Z,12.5
2022-09-26T15:41:34.000Z,12.5
2022-09-26T15:42:49.000Z,12.5
2022-09-26T15:44:05.000Z,12.5
2022-09-26T15:45:22.000Z,12.5
2022-09-26T15:46:38.000Z,12.4
2022-09-26T15:47:54.000Z,12.4
2022-09-26T15:49:10.000Z,12.5
2022-09-26T15:50:27.000Z,12.4
2022-09-26T15:51:43.000Z,12.5
2022-09-26T15:52:59.000Z,12.5
2022-09-26T15:54:15.000Z,12.5
2022-09-26T15:55:32.000Z,12.4
2022-09-26T15:56:48.000Z,12.4
2022-09-26T15:58:04.000Z,12.4
2022-09-26T15:59:19.000Z,12.4
2022-09-26T16:00:36.000Z,12.4
2022-09-26T16:01:52.000Z,12.4
2022-09-26T16:03:08.000Z,12.4
2022-09-26T16:04:24.000Z,12.4
2022-09-26T16:05:40.000Z,12.4
2022-09-26T16:06:57.000Z,12.4
2022-09-26T16:08:13.000Z,12.4
2022-09-26T16:09:29.000Z,12.5
2022-09-26T16:10:45.000Z,12.5
2022-09-26T16:12:02.000Z,12.4
2022-09-26T16:13:17.000Z,12.4
2022-09-26T16:14:32.000Z,12.5
2022-09-26T16:15:48.000Z,12.4
2022-09-26T16:17:04.000Z,12.4
2022-09-26T16:18:19.000Z,12.4
2022-09-26T16:19:35.000Z,12.4
2022-09-26T16:20:51.000Z,12.4
2022-09-26T16:22:08.000Z,12.4
2022-09-26T16:23:24.000Z,12.4
2022-09-26T16:24:40.000Z,12.3
2022-09-26T16:25:56.000Z,12.2
2022-09-26T16:27:13.000Z,12.2
2022-09-26T16:28:29.000Z,12.2
2022-09-26T16:29:45.000Z,12.1
2022-09-26T16:31:01.000Z,12.1
2022-09-26T16:32:17.000Z,12.1
2022-09-26T16:33:34.000Z,12.1
2022-09-26T16:34:49.000Z,12.1
2022-09-26T16:36:05.000Z,12.1
2022-09-26T16:37:21.000Z,12.2
2022-09-26T16:38:38.000Z,12.2
2022-09-26T16:39:54.000Z,12.1
2022-09-26T16:41:10.000Z,12.1
2022-09-26T16:42:26.000Z,12.1
2022-09-26T16:43:42.000Z,12
2022-09-26T16:44:57.000Z,12
2022-09-26T16:46:12.000Z,12
2022-09-26T16:47:27.000Z,12
2022-09-26T16:48:44.000Z,12
2022-09-26T16:50:00.000Z,12
2022-09-26T16:51:16.000Z,12
2022-09-26T16:52:32.000Z,12
2022-09-26T16:53:49.000Z,11.9
2022-09-26T16:55:05.000Z,11.9
2022-09-26T16:56:21.000Z,11.8
2022-09-26T16:57:37.000Z,11.8